Val-d'Or Airport
CYVO : now visible

Airfield :











YOU CAN JOIN US ON...

 
LOGIN :

Register | Disclaimer

   EN    FR    IT 

 









Legend :    VFR   Marginal VFR   IFR   Intensive IFR   Very Intensive IFR
Visi :
Ceiling :
>= 8 km
>= 3000ft
5 to 8 km
1000 to 3000 ft
1500m to 5 km
500 to 1000 ft
800 to 1500m
200 to 500 ft
< 800m
< 200 ft
Symbols :   Thunderstorms  Fog  Heavy snow  Heavy precipitations  Wind > 20 kt






- Airport Elevation : 1107 ft
- IATA code : YVO


CYVO - Val-d'Or

CURRENT METAR :
  • 060023Z 35012KT 6SM BR OVC005 M06/M07 A3009 RMK ST8 FROIN SLP217

EXPIRED METARs :
  • 060000Z 34010KT 5SM -FZDZ OVC007 M06/M06 A3009 RMK ST8 RIME ON INDICATOR SLP216
  • 052358Z 34008KT 6SM -FZDZ OVC007 M06/M06 A3009 RMK ST8 RIME ON INDICATOR SLP216
  • 052333Z 35010KT 15SM BKN009 M06/M07 A3008 RMK SF7 SLP215
  • 052300Z 35012KT 15SM -SN OVC008 M05/M06 A3009 RMK ST8 SLP216

TAF AMD TAF CYVO
Valid from the 06 at 00:00 until the 06 at 12:00 UTC


060015Z 0600/0612 34010KT P6SM OVC008
TEMPO 0600/0612 5SM -FZDZ -SN BR OVC004
PROB30 0600/0612 2SM -FZDZ BR RMK NXT FCST BY 060600Z
CZUL FIR / North America



MET'MAP, your aeronautical weather chart ! - Copyright ORBIFLY December 2007 - Disclaimer

ORBIFLY MET'MAP TEAM :

Programming & Development : Alexandra Zaïnal
Concept & original design : Baudouin d'Aumeries
Assistance for programming : Marc-Olivier Méhu
Technical & hardware support : Manuel Goepfert

Contact : metmap@orbifly.com




SOURCES & CREDITS :

   NOAA       Earth
Advisory